Augusta, Montana
Current Conditions -  °F | °C
As of 5:53 PM on Sunday 21 Dec 2014 (Local Time) from KGTF Reporting Station
Clear Clear  
Wind Chill: 29°   Ceiling: Unl
Heat Index: 38°   Visibility: 10mi
Dew Point: 22°   Wind: 17mph
Humidity: 53%   Direction: 250°WSW
Pressure: 29.61"   Gusts: NA
Location:  47.49°N, 112.4°W
Report Text: KGTF 220053Z 25015KT 10SM CLR 03/M06 A2961 RMK AO2 SLP048 T00331056
Loading
Personal Weather Stations






























Interactive Weather Map New forecast layout! Learn more

10-Day Weather Forecast

Advertisements
Track Severe Weather on mobile